createdAt,value
2022-08-21T00:01:07.361Z,1.80
2022-08-21T00:03:35.573Z,1.70
2022-08-21T00:06:04.166Z,1.97
2022-08-21T00:08:32.170Z,2.20
2022-08-21T00:11:00.290Z,1.30
2022-08-21T00:13:28.478Z,1.47
2022-08-21T00:15:58.386Z,1.23
2022-08-21T00:18:26.887Z,1.37
2022-08-21T00:20:55.128Z,1.77
2022-08-21T00:23:23.312Z,1.43
2022-08-21T00:25:51.574Z,2.23
2022-08-21T00:28:19.599Z,2.90
2022-08-21T00:30:47.779Z,1.73
2022-08-21T00:33:17.172Z,1.70
2022-08-21T00:35:45.595Z,2.07
2022-08-21T00:38:14.166Z,1.77
2022-08-21T00:40:45.712Z,1.90
2022-08-21T00:43:18.915Z,1.83
2022-08-21T00:45:47.154Z,2.00
2022-08-21T00:48:17.071Z,1.70
2022-08-21T00:50:49.029Z,1.93
2022-08-21T00:53:17.622Z,1.60
2022-08-21T00:55:47.165Z,2.53
2022-08-21T00:58:17.503Z,1.83
2022-08-21T01:00:49.999Z,1.57
2022-08-21T01:03:23.676Z,6.13
2022-08-21T01:05:52.909Z,7.20
2022-08-21T01:08:22.767Z,10.93
2022-08-21T01:10:54.700Z,12.47
2022-08-21T01:13:25.631Z,11.90
2022-08-21T01:15:58.413Z,10.03
2022-08-21T01:18:28.199Z,8.80
2022-08-21T01:21:05.501Z,7.87
2022-08-21T01:23:34.040Z,5.13
2022-08-21T01:26:02.068Z,3.67
2022-08-21T01:28:32.992Z,2.07
2022-08-21T01:31:03.488Z,3.50
2022-08-21T01:33:31.560Z,2.33
2022-08-21T01:35:59.633Z,3.00
2022-08-21T01:38:29.201Z,2.47
2022-08-21T01:40:59.361Z,3.13
2022-08-21T01:43:33.983Z,2.80
2022-08-21T01:46:07.418Z,2.57
2022-08-21T01:48:35.558Z,3.33
2022-08-21T01:51:03.792Z,3.13
2022-08-21T01:53:35.079Z,3.00
2022-08-21T01:56:03.551Z,3.30
2022-08-21T01:58:31.788Z,2.30
2022-08-21T02:00:59.754Z,3.00
2022-08-21T02:03:35.667Z,2.63
2022-08-21T02:06:04.996Z,3.30
2022-08-21T02:08:35.265Z,3.03
2022-08-21T02:11:03.468Z,2.87
2022-08-21T02:13:31.453Z,2.73
2022-08-21T02:15:59.468Z,3.67
2022-08-21T02:18:27.577Z,2.77
2022-08-21T02:20:56.451Z,2.77
2022-08-21T02:23:27.246Z,2.77
2022-08-21T02:25:58.650Z,3.07
2022-08-21T02:28:27.611Z,2.13
2022-08-21T02:30:57.297Z,2.97
2022-08-21T02:33:26.873Z,2.17
2022-08-21T02:35:55.385Z,2.40
2022-08-21T02:38:26.308Z,2.67
2022-08-21T02:40:57.493Z,2.20
2022-08-21T02:43:27.656Z,2.60
2022-08-21T02:45:57.106Z,2.80
2022-08-21T02:48:27.704Z,2.87
2022-08-21T02:50:58.048Z,2.40
2022-08-21T02:53:26.854Z,2.10
2022-08-21T02:55:56.467Z,2.23
2022-08-21T02:58:27.172Z,2.47
2022-08-21T03:00:55.275Z,3.03
2022-08-21T03:03:23.337Z,3.20
2022-08-21T03:05:51.720Z,1.87
2022-08-21T03:08:21.090Z,2.60
2022-08-21T03:10:52.734Z,4.03
2022-08-21T03:13:22.815Z,2.87
2022-08-21T03:15:51.754Z,1.90
2022-08-21T03:18:20.616Z,2.23
2022-08-21T03:20:49.062Z,2.80
2022-08-21T03:23:18.999Z,3.13
2022-08-21T03:25:49.360Z,2.77
2022-08-21T03:28:20.012Z,2.70
2022-08-21T03:30:51.057Z,2.17
2022-08-21T03:33:20.675Z,1.83
2022-08-21T03:36:06.112Z,2.53
2022-08-21T03:38:35.943Z,3.43
2022-08-21T03:41:05.016Z,2.47
2022-08-21T03:43:34.229Z,2.90
2022-08-21T03:46:05.479Z,1.93
2022-08-21T03:48:33.998Z,2.53
2022-08-21T03:51:02.016Z,1.90
2022-08-21T03:53:31.266Z,2.17
2022-08-21T03:55:59.440Z,2.47
2022-08-21T03:58:29.330Z,1.47
2022-08-21T04:00:59.412Z,2.20
2022-08-21T04:03:30.000Z,1.83
2022-08-21T04:05:58.409Z,1.97
2022-08-21T04:08:26.495Z,2.10
2022-08-21T04:10:58.119Z,1.87
2022-08-21T04:13:27.719Z,1.90
2022-08-21T04:15:55.980Z,1.90
2022-08-21T04:18:23.926Z,1.77
2022-08-21T04:20:55.787Z,2.10
2022-08-21T04:23:24.889Z,1.63
2022-08-21T04:25:54.408Z,2.13
2022-08-21T04:28:23.517Z,1.80
2022-08-21T04:30:55.229Z,2.53
2022-08-21T04:33:24.277Z,2.67
2022-08-21T04:35:57.432Z,1.90
2022-08-21T04:38:25.624Z,1.70
2022-08-21T04:40:53.884Z,1.90
2022-08-21T04:43:24.421Z,1.73
2022-08-21T04:45:54.270Z,1.67
2022-08-21T04:48:25.180Z,2.10
2022-08-21T04:50:58.519Z,1.60
2022-08-21T04:53:30.169Z,1.60
2022-08-21T04:56:02.781Z,1.57
2022-08-21T04:58:32.072Z,1.60
2022-08-21T05:01:00.808Z,1.30
2022-08-21T05:03:32.462Z,1.47
2022-08-21T05:06:02.280Z,2.07
2022-08-21T05:08:30.613Z,1.70
2022-08-21T05:11:00.615Z,1.97
2022-08-21T05:13:29.317Z,2.73
2022-08-21T05:15:57.326Z,2.33
2022-08-21T05:18:25.405Z,1.80
2022-08-21T05:20:53.523Z,1.50
2022-08-21T05:23:23.163Z,1.53
2022-08-21T05:25:51.305Z,1.73
2022-08-21T05:28:19.647Z,2.57
2022-08-21T05:30:48.453Z,1.90
2022-08-21T05:33:16.855Z,2.37
2022-08-21T05:35:44.769Z,2.00
2022-08-21T05:38:14.860Z,1.83
2022-08-21T05:40:47.624Z,2.17
2022-08-21T05:43:16.448Z,2.13
2022-08-21T05:45:44.782Z,1.70
2022-08-21T05:48:15.124Z,1.48
2022-08-21T05:50:44.025Z,1.98
2022-08-21T05:53:13.459Z,2.75
2022-08-21T05:55:45.610Z,2.13
2022-08-21T05:58:16.403Z,2.20
2022-08-21T06:00:45.199Z,2.35
2022-08-21T06:03:14.394Z,1.98
2022-08-21T06:05:42.377Z,3.08
2022-08-21T06:08:10.422Z,1.80
2022-08-21T06:10:38.439Z,1.88
2022-08-21T06:13:06.739Z,1.92
2022-08-21T06:15:36.425Z,14.30
2022-08-21T06:18:04.724Z,13.85
2022-08-21T06:20:33.646Z,13.57
2022-08-21T06:23:02.494Z,13.95
2022-08-21T06:25:31.428Z,12.88
2022-08-21T06:28:03.998Z,12.85
2022-08-21T06:30:32.129Z,12.23
2022-08-21T06:33:01.698Z,13.43
2022-08-21T06:35:30.595Z,13.07
2022-08-21T06:37:59.109Z,12.13
2022-08-21T06:40:29.602Z,12.23
2022-08-21T06:42:58.571Z,12.20
2022-08-21T06:45:28.283Z,12.35
2022-08-21T06:48:01.945Z,12.30
2022-08-21T06:50:31.257Z,11.55
2022-08-21T06:53:04.885Z,10.55
2022-08-21T06:55:33.239Z,12.00
2022-08-21T06:58:01.863Z,11.90
2022-08-21T07:00:30.748Z,11.50
2022-08-21T07:02:59.029Z,11.80
2022-08-21T07:05:29.289Z,11.43
2022-08-21T07:07:59.078Z,11.07
2022-08-21T07:10:29.095Z,11.85
2022-08-21T07:13:01.250Z,11.25
2022-08-21T07:15:30.918Z,10.80
2022-08-21T07:17:59.690Z,10.60
2022-08-21T07:20:30.472Z,10.73
2022-08-21T07:23:00.517Z,9.30
2022-08-21T07:25:28.689Z,9.45
2022-08-21T07:27:56.929Z,9.52
2022-08-21T07:30:25.417Z,9.13
2022-08-21T07:32:53.389Z,8.80
2022-08-21T07:35:21.888Z,8.35
2022-08-21T07:37:51.271Z,9.43
2022-08-21T07:40:19.831Z,9.23
2022-08-21T07:42:52.828Z,9.75
2022-08-21T07:45:23.400Z,8.13
2022-08-21T07:47:55.417Z,8.02
2022-08-21T07:50:27.074Z,9.27
2022-08-21T07:52:57.109Z,10.57
2022-08-21T07:55:26.501Z,7.97
2022-08-21T07:57:54.632Z,7.88
2022-08-21T08:00:25.311Z,9.38
2022-08-21T08:02:55.309Z,8.10
2022-08-21T08:05:27.405Z,7.82
2022-08-21T08:07:57.734Z,7.55
2022-08-21T08:10:27.491Z,9.73
2022-08-21T08:13:00.926Z,9.88
2022-08-21T08:15:42.065Z,11.15
2022-08-21T08:18:11.675Z,11.23
2022-08-21T08:20:40.297Z,11.73
2022-08-21T08:23:12.276Z,12.13
2022-08-21T08:25:40.773Z,13.05
2022-08-21T08:28:16.965Z,12.95
2022-08-21T08:30:46.807Z,13.35
2022-08-21T08:33:15.269Z,12.43
2022-08-21T08:35:44.744Z,12.52
2022-08-21T08:38:17.909Z,12.10
2022-08-21T08:40:53.672Z,11.85
2022-08-21T08:43:22.309Z,12.02
2022-08-21T08:45:52.613Z,11.00
2022-08-21T08:48:41.244Z,12.40
2022-08-21T08:51:15.524Z,11.57
2022-08-21T08:53:51.976Z,14.00
2022-08-21T08:56:25.428Z,13.38
2022-08-21T08:58:55.507Z,12.93
2022-08-21T09:01:23.394Z,11.73
2022-08-21T09:03:54.425Z,12.45
2022-08-21T09:06:36.754Z,10.60
2022-08-21T09:09:24.280Z,10.32
2022-08-21T09:12:01.874Z,12.68
2022-08-21T09:14:50.516Z,9.15
2022-08-21T09:17:31.584Z,9.98
2022-08-21T09:20:10.992Z,9.52
2022-08-21T09:22:49.284Z,8.85
2022-08-21T09:25:24.420Z,8.82
2022-08-21T09:27:52.687Z,8.90
2022-08-21T09:30:25.721Z,9.00
2022-08-21T09:32:53.664Z,8.60
2022-08-21T09:35:25.083Z,9.52
2022-08-21T09:37:55.827Z,7.97
2022-08-21T09:40:40.060Z,7.97
2022-08-21T09:43:19.004Z,7.68
2022-08-21T09:45:48.397Z,7.50
2022-08-21T09:48:19.930Z,7.40
2022-08-21T09:50:49.719Z,7.15
2022-08-21T09:53:20.493Z,7.57
2022-08-21T09:56:13.240Z,7.47
2022-08-21T09:58:45.546Z,7.03
2022-08-21T10:01:17.733Z,7.38
2022-08-21T10:03:46.200Z,7.10
2022-08-21T10:06:25.109Z,8.02
2022-08-21T10:08:53.013Z,7.15
2022-08-21T10:11:29.419Z,7.05
2022-08-21T10:14:07.262Z,7.85
2022-08-21T10:16:43.325Z,8.13
2022-08-21T10:19:23.596Z,7.18
2022-08-21T10:22:03.199Z,8.02
2022-08-21T10:24:35.667Z,7.53
2022-08-21T10:27:18.019Z,8.05
2022-08-21T10:29:52.569Z,7.68
2022-08-21T10:32:39.061Z,7.57
2022-08-21T10:35:14.144Z,7.40
2022-08-21T10:38:03.370Z,7.18
2022-08-21T10:40:37.223Z,7.15
2022-08-21T10:43:18.837Z,7.22
2022-08-21T10:45:58.333Z,7.28
2022-08-21T10:48:31.160Z,7.25
2022-08-21T10:51:07.367Z,6.70
2022-08-21T10:53:57.544Z,6.90
2022-08-21T10:56:27.362Z,6.93
2022-08-21T10:59:11.021Z,6.88
2022-08-21T11:01:46.851Z,7.45
2022-08-21T11:04:20.436Z,6.65
2022-08-21T11:06:52.170Z,7.20
2022-08-21T11:09:22.683Z,7.22
2022-08-21T11:11:59.336Z,7.15
2022-08-21T11:14:50.261Z,7.03
2022-08-21T11:17:23.295Z,6.75
2022-08-21T11:19:56.636Z,6.70
2022-08-21T11:22:30.991Z,7.13
2022-08-21T11:25:05.057Z,6.82
2022-08-21T11:27:41.051Z,6.95
2022-08-21T11:30:11.787Z,7.05
2022-08-21T11:32:56.126Z,6.68
2022-08-21T11:35:34.517Z,6.15
2022-08-21T11:38:21.200Z,6.35
2022-08-21T11:41:01.210Z,8.23
2022-08-21T11:43:37.862Z,6.10
2022-08-21T11:46:19.185Z,5.57
2022-08-21T11:48:57.131Z,6.55
2022-08-21T11:51:33.557Z,6.22
2022-08-21T11:54:13.311Z,6.68
2022-08-21T11:56:46.036Z,6.38
2022-08-21T11:59:21.779Z,6.95
2022-08-21T12:01:54.142Z,5.97
2022-08-21T12:04:28.810Z,6.72
2022-08-21T12:06:57.447Z,7.07
2022-08-21T12:09:37.584Z,8.15
2022-08-21T12:12:08.009Z,7.78
2022-08-21T12:14:42.636Z,7.05
2022-08-21T12:17:20.634Z,7.47
2022-08-21T12:19:59.877Z,7.57
2022-08-21T12:22:40.031Z,7.97
2022-08-21T12:25:13.384Z,7.35
2022-08-21T12:27:48.789Z,7.63
2022-08-21T12:30:35.405Z,7.45
2022-08-21T12:33:06.820Z,7.50
2022-08-21T12:35:40.418Z,6.85
2022-08-21T12:38:17.031Z,7.65
2022-08-21T12:40:51.198Z,6.88
2022-08-21T12:43:24.356Z,6.95
2022-08-21T12:45:53.459Z,7.00
2022-08-21T12:48:27.412Z,7.40
2022-08-21T12:50:57.576Z,7.30
2022-08-21T12:53:34.087Z,7.15
2022-08-21T12:56:04.770Z,7.00
2022-08-21T12:58:33.338Z,7.38
2022-08-21T13:01:06.497Z,7.88
2022-08-21T13:03:38.917Z,6.60
2022-08-21T13:06:07.772Z,7.00
2022-08-21T13:08:40.944Z,6.50
2022-08-21T13:11:15.166Z,7.38
2022-08-21T13:13:49.897Z,7.32
2022-08-21T13:16:24.514Z,7.18
2022-08-21T13:19:01.775Z,6.20
2022-08-21T13:21:32.017Z,6.55
2022-08-21T13:24:41.369Z,5.82
2022-08-21T13:27:21.319Z,6.30
2022-08-21T13:29:54.231Z,6.03
2022-08-21T13:32:33.317Z,6.63
2022-08-21T13:35:10.944Z,6.82
2022-08-21T13:37:41.520Z,8.70
2022-08-21T13:40:14.504Z,7.22
2022-08-21T13:42:45.048Z,10.18
2022-08-21T13:45:18.499Z,7.18
2022-08-21T13:47:49.107Z,8.27
2022-08-21T13:50:22.773Z,8.43
2022-08-21T13:52:58.009Z,7.40
2022-08-21T13:55:36.846Z,6.28
2022-08-21T13:58:06.576Z,7.10
2022-08-21T14:00:37.377Z,5.88
2022-08-21T14:03:10.844Z,5.63
2022-08-21T14:05:48.402Z,6.10
2022-08-21T14:08:30.247Z,5.75
2022-08-21T14:10:59.515Z,6.20
2022-08-21T14:13:35.820Z,7.25
2022-08-21T14:16:14.295Z,6.35
2022-08-21T14:18:50.726Z,6.40
2022-08-21T14:21:33.259Z,6.70
2022-08-21T14:24:04.598Z,7.10
2022-08-21T14:26:32.857Z,6.78
2022-08-21T14:29:02.621Z,6.88
2022-08-21T14:31:41.859Z,7.15
2022-08-21T14:34:19.645Z,6.43
2022-08-21T14:36:49.975Z,6.85
2022-08-21T14:39:18.259Z,7.45
2022-08-21T14:41:49.581Z,7.57
2022-08-21T14:44:19.403Z,7.03
2022-08-21T14:46:55.841Z,6.70
2022-08-21T14:49:29.017Z,7.15
2022-08-21T14:51:59.540Z,6.95
2022-08-21T14:54:31.358Z,7.32
2022-08-21T14:57:01.603Z,7.35
2022-08-21T14:59:30.011Z,7.72
2022-08-21T15:01:58.234Z,6.72
2022-08-21T15:04:26.460Z,7.00
2022-08-21T15:06:54.326Z,7.10
2022-08-21T15:09:25.184Z,6.28
2022-08-21T15:11:57.590Z,7.80
2022-08-21T15:14:31.451Z,7.50
2022-08-21T15:16:59.867Z,8.02
2022-08-21T15:19:28.375Z,7.18
2022-08-21T15:21:56.356Z,7.72
2022-08-21T15:24:26.107Z,7.50
2022-08-21T15:26:55.371Z,7.13
2022-08-21T15:29:23.803Z,7.78
2022-08-21T15:31:56.732Z,7.88
2022-08-21T15:34:27.297Z,7.75
2022-08-21T15:36:57.019Z,7.88
2022-08-21T15:39:31.294Z,7.82
2022-08-21T15:42:02.777Z,7.30
2022-08-21T15:44:38.884Z,7.45
2022-08-21T15:47:08.550Z,7.90
2022-08-21T15:49:37.775Z,7.40
2022-08-21T15:52:05.876Z,7.20
2022-08-21T15:54:35.180Z,7.80
2022-08-21T15:57:03.909Z,7.53
2022-08-21T15:59:40.669Z,7.15
2022-08-21T16:02:13.409Z,7.45
2022-08-21T16:04:41.263Z,7.90
2022-08-21T16:07:09.806Z,7.20
2022-08-21T16:09:39.695Z,7.30
2022-08-21T16:12:08.384Z,7.65
2022-08-21T16:14:38.160Z,7.63
2022-08-21T16:17:07.141Z,7.80
2022-08-21T16:19:36.107Z,8.40
2022-08-21T16:22:04.791Z,8.38
2022-08-21T16:24:33.032Z,8.40
2022-08-21T16:27:03.791Z,8.20
2022-08-21T16:29:38.405Z,7.38
2022-08-21T16:32:09.091Z,8.68
2022-08-21T16:34:37.881Z,6.97
2022-08-21T16:37:05.976Z,7.43
2022-08-21T16:39:33.986Z,7.55
2022-08-21T16:42:03.463Z,7.68
2022-08-21T16:44:31.515Z,6.80
2022-08-21T16:46:59.589Z,7.35
2022-08-21T16:49:27.924Z,8.10
2022-08-21T16:51:55.923Z,8.95
2022-08-21T16:54:24.112Z,7.97
2022-08-21T16:56:52.105Z,7.47
2022-08-21T16:59:24.174Z,7.50
2022-08-21T17:01:54.535Z,7.78
2022-08-21T17:04:22.434Z,7.35
2022-08-21T17:06:50.323Z,7.35
2022-08-21T17:09:18.191Z,8.20
2022-08-21T17:11:49.726Z,7.38
2022-08-21T17:14:20.788Z,7.22
2022-08-21T17:16:53.326Z,8.13
2022-08-21T17:19:23.141Z,7.85
2022-08-21T17:21:51.139Z,7.75
2022-08-21T17:24:19.145Z,9.35
2022-08-21T17:26:47.320Z,9.90
2022-08-21T17:29:16.855Z,9.15
2022-08-21T17:31:45.550Z,8.82
2022-08-21T17:34:16.848Z,8.57
2022-08-21T17:36:44.807Z,9.18
2022-08-21T17:39:13.981Z,8.55
2022-08-21T17:41:54.411Z,7.28
2022-08-21T17:44:26.021Z,7.70
2022-08-21T17:46:54.062Z,7.45
2022-08-21T17:49:23.379Z,8.25
2022-08-21T17:51:52.784Z,8.10
2022-08-21T17:54:21.011Z,8.50
2022-08-21T17:56:49.230Z,8.07
2022-08-21T17:59:17.489Z,8.05
2022-08-21T18:01:47.223Z,10.13
2022-08-21T18:04:15.670Z,9.40
2022-08-21T18:06:45.470Z,10.13
2022-08-21T18:09:14.167Z,9.50
2022-08-21T18:11:44.119Z,9.27
2022-08-21T18:14:13.273Z,9.15
2022-08-21T18:16:41.247Z,9.90
2022-08-21T18:19:15.256Z,9.85
2022-08-21T18:21:44.690Z,10.10
2022-08-21T18:24:12.923Z,11.32
2022-08-21T18:26:42.889Z,10.82
2022-08-21T18:29:14.629Z,11.82
2022-08-21T18:31:46.005Z,11.57
2022-08-21T18:34:23.374Z,10.60
2022-08-21T18:36:54.159Z,13.70
2022-08-21T18:39:36.392Z,12.98
2022-08-21T18:42:10.076Z,10.73
2022-08-21T18:44:39.055Z,11.52
2022-08-21T18:47:11.560Z,11.55
2022-08-21T18:49:41.119Z,11.18
2022-08-21T18:52:17.791Z,9.95
2022-08-21T18:54:49.830Z,9.68
2022-08-21T18:57:19.407Z,9.82
2022-08-21T18:59:49.290Z,9.75
2022-08-21T19:02:17.224Z,9.85
2022-08-21T19:04:46.955Z,10.00
2022-08-21T19:07:19.871Z,9.75
2022-08-21T19:10:07.652Z,9.70
2022-08-21T19:12:39.100Z,10.07
2022-08-21T19:15:10.327Z,9.40
2022-08-21T19:17:38.605Z,9.98
2022-08-21T19:20:19.456Z,10.38
2022-08-21T19:22:56.679Z,9.00
2022-08-21T19:25:33.546Z,10.20
2022-08-21T19:28:03.647Z,12.10
2022-08-21T19:30:41.018Z,11.15
2022-08-21T19:33:09.873Z,8.98
2022-08-21T19:35:38.148Z,7.63
2022-08-21T19:38:07.423Z,7.28
2022-08-21T19:40:37.946Z,6.53
2022-08-21T19:43:11.492Z,8.13
2022-08-21T19:45:39.809Z,8.00
2022-08-21T19:48:08.459Z,7.28
2022-08-21T19:50:37.075Z,5.70
2022-08-21T19:53:05.523Z,5.05
2022-08-21T19:55:44.580Z,3.83
2022-08-21T19:58:24.991Z,3.92
2022-08-21T20:00:53.033Z,3.88
2022-08-21T20:03:21.261Z,3.83
2022-08-21T20:05:49.328Z,4.57
2022-08-21T20:08:20.440Z,4.30
2022-08-21T20:10:50.500Z,4.80
2022-08-21T20:13:21.585Z,4.82
2022-08-21T20:15:50.743Z,4.40
2022-08-21T20:18:19.808Z,4.53
2022-08-21T20:20:54.898Z,4.33
2022-08-21T20:23:30.142Z,4.50
2022-08-21T20:26:00.626Z,4.90
2022-08-21T20:28:31.089Z,4.55
2022-08-21T20:30:59.573Z,4.70
2022-08-21T20:33:27.806Z,4.93
2022-08-21T20:35:55.884Z,4.78
2022-08-21T20:38:24.416Z,4.60
2022-08-21T20:40:55.537Z,4.50
2022-08-21T20:43:25.461Z,4.75
2022-08-21T20:45:57.271Z,4.90
2022-08-21T20:48:29.201Z,4.35
2022-08-21T20:51:13.648Z,4.35
2022-08-21T20:53:49.765Z,4.70
2022-08-21T20:56:25.772Z,4.30
2022-08-21T20:59:04.419Z,4.30
2022-08-21T21:01:35.428Z,4.60
2022-08-21T21:04:19.425Z,4.60
2022-08-21T21:06:49.878Z,4.90
2022-08-21T21:09:34.875Z,4.60
2022-08-21T21:12:16.022Z,5.13
2022-08-21T21:14:52.796Z,5.28
2022-08-21T21:17:28.664Z,4.97
2022-08-21T21:20:03.167Z,5.53
2022-08-21T21:22:36.925Z,5.80
2022-08-21T21:25:09.506Z,6.07
2022-08-21T21:27:41.476Z,6.53
2022-08-21T21:30:14.535Z,6.90
2022-08-21T21:32:43.055Z,6.87
2022-08-21T21:35:14.818Z,6.93
2022-08-21T21:37:48.219Z,7.03
2022-08-21T21:40:34.838Z,6.90
2022-08-21T21:43:12.245Z,6.90
2022-08-21T21:46:00.968Z,6.73
2022-08-21T21:48:50.252Z,7.13
2022-08-21T21:51:30.346Z,6.53
2022-08-21T21:54:16.014Z,8.00
2022-08-21T21:56:55.870Z,7.60
2022-08-21T21:59:37.475Z,6.77
2022-08-21T22:02:16.064Z,6.80
2022-08-21T22:04:56.442Z,6.83
2022-08-21T22:10:30.668Z,7.60
2022-08-21T22:13:11.059Z,6.97
2022-08-21T22:15:41.477Z,7.13
2022-08-21T22:18:16.034Z,6.97
2022-08-21T22:20:49.911Z,6.77
2022-08-21T22:23:20.636Z,7.07
2022-08-21T22:25:52.859Z,6.93
2022-08-21T22:28:25.879Z,7.33
2022-08-21T22:30:56.865Z,7.60
2022-08-21T22:33:29.388Z,6.83
2022-08-21T22:35:59.296Z,6.60
2022-08-21T22:38:36.947Z,7.27
2022-08-21T22:41:13.836Z,6.90
2022-08-21T22:43:53.280Z,6.20
2022-08-21T22:46:28.481Z,7.00
2022-08-21T22:49:04.420Z,6.87
2022-08-21T22:51:39.584Z,7.13
2022-08-21T22:54:21.778Z,6.63
2022-08-21T22:57:01.283Z,7.60
2022-08-21T22:59:34.777Z,6.63
2022-08-21T23:02:07.363Z,6.63
2022-08-21T23:04:48.907Z,6.77
2022-08-21T23:07:34.153Z,6.90
2022-08-21T23:10:02.871Z,6.70
2022-08-21T23:12:36.376Z,7.27
2022-08-21T23:15:09.322Z,7.40
2022-08-21T23:17:49.996Z,7.33
2022-08-21T23:20:25.743Z,7.87
2022-08-21T23:23:04.319Z,7.87
2022-08-21T23:25:54.976Z,8.60
2022-08-21T23:28:36.960Z,8.07
2022-08-21T23:31:13.903Z,7.77
2022-08-21T23:34:09.280Z,8.83
2022-08-21T23:37:12.340Z,7.33
2022-08-21T23:39:54.221Z,7.73
2022-08-21T23:42:37.469Z,7.40
2022-08-21T23:45:14.369Z,7.93
2022-08-21T23:47:55.179Z,8.33
2022-08-21T23:50:26.580Z,7.80
2022-08-21T23:53:11.417Z,7.70
2022-08-21T23:55:58.692Z,8.10
2022-08-21T23:58:37.223Z,8.10
